.
WxDataArchive / Data Records for 2014-08-18
2014-08-17 August 2014 2014-08-19

Data Records for Monday, 18 August 2014

Time	Temp	Chill	HIndex	Humid	Dewpt	 Wind 	HiWind	WindDir	Rain 	Barom
-----	----	-----	------	-----	-----	------	------	-------	-----	-----
00:00	69.1	69.1	69.1	88	65.4	0	3	112	0.00	29.898 
00:05	68.9	68.9	68.9	88	65.2	0	3	45	0.00	29.898 
00:10	68.8	68.8	68.8	88	65.1	0	3	45	0.00	29.898 
00:15	68.6	68.6	68.6	88	64.9	0	3	45	0.00	29.898 
00:20	68.4	68.4	68.4	88	64.7	0	2	90	0.00	29.898 
00:25	68.1	68.1	68.1	88	64.4	0	3	90	0.00	29.898 
00:30	68.1	68.1	68.1	88	64.4	1	3	90	0.00	29.898 
00:35	67.9	67.9	67.9	88	64.2	0	2	90	0.00	29.898 
00:40	67.8	67.8	67.8	88	64.1	1	5	90	0.00	29.898 
00:45	67.6	67.6	67.6	88	63.9	0	0	---	0.00	29.897 
00:50	67.4	67.4	67.4	88	63.7	0	1	90	0.00	29.897 
00:55	67.3	67.3	67.3	89	63.9	0	1	90	0.00	29.897 
01:00	67.1	67.1	67.1	89	63.7	0	1	90	0.00	29.898 
01:05	66.9	66.9	66.9	89	63.5	1	4	90	0.00	29.898 
01:10	66.9	66.9	66.9	89	63.5	0	2	90	0.00	29.898 
01:15	66.8	66.8	66.8	89	63.4	0	1	90	0.00	29.890 
01:20	66.6	66.6	66.6	89	63.3	0	1	90	0.00	29.890 
01:25	66.4	66.4	66.4	89	63.1	0	2	90	0.00	29.890 
01:30	66.3	66.3	66.3	90	63.3	0	1	90	0.00	29.889 
01:35	66.3	66.3	66.3	90	63.3	0	2	90	0.00	29.889 
01:40	66.1	66.1	66.1	90	63.1	0	2	90	0.00	29.889 
01:45	66.0	66.0	66.0	90	63.0	0	1	90	0.00	29.886 
01:50	65.8	65.8	65.8	90	62.8	0	2	90	0.00	29.886 
01:55	65.6	65.6	65.6	90	62.6	0	2	90	0.00	29.886 
02:00	65.5	65.5	65.5	90	62.5	0	2	90	0.00	29.882 
02:05	65.5	65.5	65.5	90	62.5	0	0	---	0.00	29.882 
02:10	65.3	65.3	65.3	90	62.3	0	0	---	0.00	29.882 
02:15	65.2	65.2	65.2	90	62.2	0	0	---	0.00	29.882 
02:20	65.0	65.0	65.0	91	62.3	0	0	---	0.00	29.882 
02:25	65.0	65.0	65.0	91	62.3	0	1	90	0.00	29.882 
02:30	64.8	64.8	64.8	91	62.1	0	1	90	0.00	29.873 
02:35	64.7	64.7	64.7	91	62.0	0	0	---	0.00	29.873 
02:40	64.7	64.7	64.7	91	62.0	0	0	---	0.00	29.873 
02:45	64.5	64.5	64.5	90	61.5	0	0	---	0.00	29.869 
02:50	64.3	64.3	64.3	90	61.3	0	0	---	0.00	29.869 
02:55	64.2	64.2	64.2	90	61.2	0	0	---	0.00	29.869 
03:00	64.2	64.2	64.2	90	61.2	0	0	---	0.00	29.868 
03:05	64.0	64.0	64.0	90	61.0	0	1	90	0.00	29.868 
03:10	63.9	63.9	63.9	90	60.9	0	0	---	0.00	29.868 
03:15	63.9	63.9	63.9	90	60.9	0	0	---	0.00	29.868 
03:20	63.9	63.9	63.9	90	60.9	0	1	90	0.00	29.868 
03:25	63.7	63.7	63.7	89	60.4	0	0	---	0.00	29.868 
03:30	63.7	63.7	63.7	89	60.4	0	1	90	0.00	29.866 
03:35	63.5	63.5	63.5	89	60.2	0	1	90	0.00	29.866 
03:40	63.5	63.5	63.5	89	60.2	0	0	---	0.00	29.866 
03:45	63.5	63.5	63.5	89	60.2	0	1	90	0.00	29.862 
03:50	63.4	63.4	63.4	89	60.1	0	0	---	0.00	29.862 
03:55	63.4	63.4	63.4	89	60.1	0	0	---	0.00	29.862 
04:00	63.2	63.2	63.2	89	59.9	0	0	---	0.00	29.861 
04:05	63.2	63.2	63.2	89	59.9	0	0	---	0.00	29.861 
04:10	63.1	63.1	63.1	89	59.8	0	0	---	0.00	29.861 
04:15	63.1	63.1	63.1	89	59.8	0	0	---	0.00	29.857 
04:20	63.1	63.1	63.1	89	59.8	0	1	90	0.00	29.857 
04:25	63.1	63.1	63.1	88	59.5	0	1	90	0.00	29.857 
04:30	63.1	63.1	63.1	88	59.5	0	1	90	0.00	29.856 
04:35	63.1	63.1	63.1	88	59.5	0	2	90	0.00	29.856 
04:40	62.9	62.9	62.9	88	59.3	0	1	90	0.00	29.856 
04:45	62.9	62.9	62.9	88	59.3	0	0	---	0.00	29.855 
04:50	62.9	62.9	62.9	88	59.3	0	1	90	0.00	29.855 
04:55	62.7	62.7	62.7	88	59.1	0	0	---	0.00	29.855 
05:00	62.7	62.7	62.7	88	59.1	0	1	90	0.00	29.849 
05:05	62.6	62.6	62.6	88	59.0	0	1	90	0.00	29.849 
05:10	62.6	62.6	62.6	88	59.0	0	0	---	0.00	29.849 
05:15	62.4	62.4	62.4	88	58.8	0	0	---	0.00	29.854 
05:20	62.4	62.4	62.4	88	58.8	0	1	90	0.00	29.854 
05:25	62.3	62.3	62.3	88	58.7	0	1	90	0.00	29.854 
05:30	62.3	62.3	62.3	88	58.7	0	0	---	0.00	29.851 
05:35	62.3	62.3	62.3	88	58.7	0	0	---	0.00	29.851 
05:40	62.3	62.3	62.3	88	58.7	0	2	90	0.00	29.851 
05:45	62.1	62.1	62.1	88	58.5	0	1	90	0.00	29.854 
05:50	62.1	62.1	62.1	88	58.5	0	1	90	0.00	29.854 
05:55	62.1	62.1	62.1	88	58.5	0	2	90	0.00	29.854 
06:00	62.1	62.1	62.1	88	58.5	0	1	90	0.00	29.854 
06:05	62.1	62.1	62.1	88	58.5	0	1	90	0.00	29.854 
06:10	62.1	62.1	62.1	87	58.2	0	1	90	0.00	29.854 
06:15	62.1	62.1	62.1	87	58.2	0	0	---	0.00	29.857 
06:20	62.1	62.1	62.1	87	58.2	0	1	90	0.00	29.857 
06:25	62.0	62.0	62.0	87	58.1	0	1	90	0.00	29.857 
06:30	62.0	62.0	62.0	87	58.1	0	0	---	0.00	29.854 
06:35	62.0	62.0	62.0	87	58.1	0	1	90	0.00	29.854 
06:40	61.8	61.8	61.8	87	57.9	0	0	---	0.00	29.854 
06:45	61.8	61.8	61.8	87	57.9	0	0	---	0.00	29.862 
06:50	61.6	61.6	61.6	87	57.7	0	0	---	0.00	29.862 
06:55	61.6	61.6	61.6	87	57.7	0	0	---	0.00	29.862 
07:00	61.6	61.6	61.6	88	58.0	0	1	90	0.00	29.862 
07:05	61.6	61.6	61.6	87	57.7	0	0	---	0.00	29.862 
07:10	61.8	61.8	61.8	87	57.9	0	2	90	0.00	29.862 
07:15	61.8	61.8	61.8	87	57.9	0	1	90	0.00	29.869 
07:20	62.1	62.1	62.1	86	57.9	0	1	90	0.00	29.869 
07:25	62.3	62.3	62.3	86	58.1	0	1	90	0.00	29.869 
07:30	62.4	62.4	62.4	85	57.8	0	1	90	0.00	29.867 
07:35	62.7	62.7	62.7	85	58.1	0	1	90	0.00	29.867 
07:40	62.9	62.9	62.9	84	58.0	0	2	90	0.00	29.867 
07:45	63.2	63.2	63.2	83	57.9	0	1	90	0.00	29.868 
07:50	63.5	63.5	63.5	83	58.2	0	2	90	0.00	29.868 
07:55	64.3	64.3	64.3	81	58.3	0	3	90	0.00	29.868 
08:00	65.0	65.0	65.0	80	58.7	0	2	90	0.00	29.866 
08:05	65.5	65.5	65.5	79	58.8	0	2	90	0.00	29.866 
08:10	65.6	65.6	65.6	78	58.5	0	2	90	0.00	29.866 
08:15	65.6	65.6	65.6	79	58.9	0	2	90	0.00	29.872 
08:20	65.5	65.5	65.5	79	58.8	0	1	90	0.00	29.872 
08:25	65.5	65.5	65.5	80	59.2	0	2	90	0.00	29.872 
08:30	65.5	65.5	65.5	81	59.5	0	1	90	0.00	29.868 
08:35	65.5	65.5	65.5	81	59.5	0	2	90	0.00	29.868 
08:40	65.8	65.8	65.8	81	59.8	0	3	90	0.00	29.868 
08:45	66.4	66.4	66.4	80	60.0	1	3	90	0.00	29.874 
08:50	67.1	67.1	67.1	79	60.4	1	5	90	0.00	29.874 
08:55	67.6	67.6	67.6	78	60.5	1	5	90	0.00	29.874 
09:00	67.8	67.8	67.8	78	60.7	1	5	90	0.00	29.873 
09:05	67.8	67.8	67.8	78	60.7	0	2	90	0.00	29.873 
09:10	67.9	67.9	67.9	77	60.4	2	6	68	0.00	29.873 
09:15	68.1	68.1	68.1	76	60.2	1	5	90	0.00	29.872 
09:20	68.1	68.1	68.1	75	59.9	2	6	90	0.00	29.872 
09:25	68.3	68.3	68.3	76	60.4	1	7	112	0.00	29.872 
09:30	68.6	68.6	68.6	76	60.7	1	3	112	0.00	29.870 
09:35	69.1	69.1	69.1	74	60.5	2	5	112	0.00	29.870 
09:40	69.4	69.4	69.4	74	60.7	1	2	112	0.00	29.870 
09:45	69.9	69.9	69.9	73	60.8	1	3	112	0.00	29.872 
09:50	70.4	70.4	70.4	72	60.9	1	3	68	0.00	29.872 
09:55	70.9	70.9	70.9	71	61.0	1	3	68	0.00	29.872 
10:00	71.3	71.3	71.3	70	61.0	1	5	112	0.00	29.865 
10:05	71.6	71.6	71.6	70	61.3	1	4	90	0.00	29.865 
10:10	72.0	72.0	72.0	69	61.3	2	4	112	0.00	29.865 
10:15	72.3	72.3	72.3	68	61.1	2	6	90	0.00	29.870 
10:20	72.7	72.7	72.7	68	61.5	2	5	90	0.00	29.870 
10:25	73.0	73.0	73.0	69	62.2	1	4	90	0.00	29.870 
10:30	73.5	73.5	73.5	68	62.3	2	5	90	0.00	29.863 
10:35	73.9	73.9	73.9	69	63.1	1	4	90	0.00	29.863 
10:40	74.6	74.6	74.6	67	62.9	1	3	90	0.00	29.863 
10:45	75.3	75.3	77.2	66	63.1	1	4	90	0.00	29.862 
10:50	75.8	75.8	77.7	66	63.6	1	3	90	0.00	29.862 
10:55	76.3	76.3	78.1	65	63.6	1	5	90	0.00	29.862 
11:00	76.5	76.5	78.3	65	63.8	2	5	90	0.00	29.861 
11:05	76.7	76.7	78.5	63	63.1	1	4	90	0.00	29.861 
11:10	76.7	76.7	78.5	63	63.1	2	4	90	0.00	29.861 
11:15	76.7	76.7	78.5	65	64.0	1	5	90	0.00	29.863 
11:20	77.2	77.2	79.0	64	64.1	0	3	112	0.00	29.863 
11:25	77.7	77.7	79.5	64	64.5	1	4	112	0.00	29.863 
11:30	78.3	78.3	80.1	62	64.2	1	3	135	0.00	29.865 
11:35	78.3	78.3	80.1	62	64.2	2	5	68	0.00	29.865 
11:40	77.9	77.9	79.7	64	64.7	1	4	68	0.00	29.865 
11:45	78.3	78.3	80.1	63	64.6	1	3	68	0.00	29.866 
11:50	78.5	78.5	80.3	63	64.8	1	7	68	0.00	29.866 
11:55	79.0	79.0	80.8	62	64.8	1	3	90	0.00	29.866 
12:00	79.4	79.4	81.4	63	65.7	1	5	90	0.00	29.861 
12:05	79.9	79.9	81.7	60	64.7	0	2	90	0.00	29.861 
12:10	80.3	80.3	82.4	62	66.1	1	3	180	0.00	29.861 
12:15	80.7	80.7	82.5	59	65.0	0	2	158	0.00	29.860 
12:20	80.7	80.7	82.7	60	65.5	0	3	158	0.00	29.860 
12:25	80.1	80.1	82.0	61	65.4	1	3	135	0.00	29.860 
12:30	79.6	79.6	81.5	62	65.4	1	4	135	0.00	29.857 
12:35	79.4	79.4	81.5	64	66.1	1	3	135	0.00	29.857 
12:40	79.6	79.6	81.6	63	65.9	1	4	135	0.00	29.857 
12:45	79.6	79.6	81.5	62	65.4	1	4	112	0.00	29.854 
12:50	80.1	80.1	82.3	63	66.3	1	5	68	0.00	29.854 
12:55	80.5	80.5	82.8	63	66.7	0	3	68	0.00	29.854 
13:00	80.5	80.5	82.7	62	66.3	2	6	68	0.00	29.850 
13:05	80.3	80.3	82.4	62	66.1	0	3	90	0.00	29.850 
13:10	80.5	80.5	82.5	61	65.8	1	4	90	0.00	29.850 
13:15	80.3	80.3	82.4	62	66.1	1	4	90	0.00	29.840 
13:20	79.9	79.9	81.9	62	65.7	2	5	68	0.00	29.840 
13:25	80.1	80.1	82.3	63	66.3	0	2	68	0.00	29.840 
13:30	81.1	81.1	83.5	62	66.8	1	4	68	0.00	29.837 
13:35	81.4	81.4	83.6	60	66.2	1	6	68	0.00	29.837 
13:40	81.1	81.1	83.5	62	66.8	2	6	90	0.00	29.837 
13:45	81.1	81.1	83.3	61	66.4	1	5	112	0.00	29.835 
13:50	81.4	81.4	83.9	62	67.1	1	4	90	0.00	29.835 
13:55	81.6	81.6	84.0	61	66.8	1	5	90	0.00	29.835 
14:00	81.4	81.4	83.6	60	66.2	1	4	90	0.00	29.832 
14:05	81.1	81.1	83.2	60	65.9	1	4	90	0.00	29.832 
14:10	81.1	81.1	83.5	62	66.8	0	2	90	0.00	29.832 
14:15	80.9	80.9	83.1	61	66.2	0	2	90	0.00	29.834 
14:20	81.4	81.4	83.8	61	66.6	1	3	90	0.00	29.834 
14:25	81.4	81.4	83.4	59	65.7	1	6	90	0.00	29.834 
14:30	82.0	82.0	84.4	60	66.7	1	3	90	0.00	29.831 
14:35	82.0	82.0	84.2	59	66.2	1	6	90	0.00	29.831 
14:40	81.6	81.6	84.0	61	66.8	1	3	90	0.00	29.831 
14:45	82.0	82.0	84.2	59	66.2	1	3	90	0.00	29.826 
14:50	82.4	82.4	84.6	58	66.1	1	2	90	0.00	29.826 
14:55	82.8	82.8	85.2	58	66.5	0	2	90	0.00	29.826 
15:00	82.6	82.6	84.7	57	65.8	1	3	90	0.00	29.824 
15:05	82.0	82.0	84.1	58	65.7	0	3	90	0.00	29.824 
15:10	82.0	82.0	84.4	60	66.7	0	2	90	0.00	29.824 
15:15	82.4	82.4	84.6	58	66.1	1	3	90	0.00	29.812 
15:20	83.0	83.0	84.7	54	64.6	1	3	90	0.00	29.812 
15:25	82.8	82.8	85.2	58	66.5	2	4	90	0.00	29.812 
15:30	82.4	82.4	84.6	58	66.1	1	4	90	0.00	29.808 
15:35	82.4	82.4	84.6	58	66.1	2	4	112	0.00	29.808 
15:40	82.6	82.6	84.7	57	65.8	0	1	112	0.00	29.808 
15:45	83.2	83.2	85.1	55	65.3	1	3	45	0.00	29.804 
15:50	83.4	83.4	85.2	54	65.0	1	3	68	0.00	29.804 
15:55	83.6	83.6	85.5	54	65.2	1	3	68	0.00	29.804 
16:00	84.0	84.0	86.3	55	66.1	0	1	112	0.00	29.799 
16:05	84.1	84.1	86.4	55	66.2	1	3	112	0.00	29.799 
16:10	84.0	84.0	85.8	53	65.0	1	4	112	0.00	29.799 
16:15	83.8	83.8	85.7	54	65.3	1	3	112	0.00	29.800 
16:20	83.2	83.2	85.6	57	66.4	0	1	112	0.00	29.800 
16:25	83.0	83.0	85.3	57	66.2	0	2	112	0.00	29.800 
16:30	83.4	83.4	85.6	56	66.0	1	3	112	0.00	29.793 
16:35	83.6	83.6	86.1	57	66.7	0	1	112	0.00	29.793 
16:40	83.6	83.6	85.9	56	66.2	1	4	112	0.00	29.793 
16:45	83.4	83.4	85.2	54	65.0	0	2	112	0.00	29.792 
16:50	83.0	83.0	84.7	54	64.6	0	1	112	0.00	29.792 
16:55	83.0	83.0	85.1	56	65.7	0	2	112	0.00	29.792 
17:00	82.8	82.8	84.6	55	65.0	1	3	112	0.00	29.792 
17:05	82.4	82.4	84.1	55	64.6	0	3	112	0.00	29.792 
17:10	82.2	82.2	84.0	56	64.9	0	2	112	0.00	29.792 
17:15	82.4	82.4	84.1	55	64.6	0	2	112	0.00	29.792 
17:20	82.6	82.6	84.1	54	64.2	0	1	112	0.00	29.792 
17:25	82.8	82.8	85.0	57	66.0	0	2	112	0.00	29.792 
17:30	83.2	83.2	85.1	55	65.3	0	1	112	0.00	29.791 
17:35	83.8	83.8	86.0	55	65.9	0	1	112	0.00	29.791 
17:40	84.0	84.0	86.0	54	65.5	0	1	112	0.00	29.791 
17:45	84.1	84.1	86.2	54	65.6	0	1	112	0.00	29.784 
17:50	84.1	84.1	86.2	54	65.6	0	1	112	0.00	29.784 
17:55	83.8	83.8	85.7	54	65.3	0	1	112	0.00	29.784 
18:00	83.6	83.6	85.5	54	65.2	0	1	112	0.00	29.783 
18:05	83.2	83.2	84.9	54	64.8	0	2	112	0.00	29.783 
18:10	83.0	83.0	84.7	54	64.6	0	2	112	0.00	29.783 
18:15	82.8	82.8	84.6	55	65.0	0	1	112	0.00	29.786 
18:20	82.4	82.4	84.2	56	65.1	1	3	112	0.00	29.786 
18:25	82.0	82.0	83.9	57	65.2	0	2	112	0.00	29.786 
18:30	81.8	81.8	83.6	57	65.0	0	1	112	0.00	29.781 
18:35	81.6	81.6	83.4	57	64.9	0	2	112	0.00	29.781 
18:40	81.4	81.4	83.3	58	65.2	0	2	112	0.00	29.781 
18:45	81.4	81.4	83.4	59	65.7	0	1	112	0.00	29.779 
18:50	81.2	81.2	83.2	59	65.5	0	1	112	0.00	29.779 
18:55	81.1	81.1	82.9	58	64.9	0	1	112	0.00	29.779 
19:00	81.1	81.1	83.0	59	65.4	0	1	112	0.00	29.776 
19:05	81.1	81.1	83.0	59	65.4	0	1	112	0.00	29.776 
19:10	80.9	80.9	82.8	59	65.2	0	1	112	0.00	29.776 
19:15	80.9	80.9	82.9	60	65.7	0	0	---	0.00	29.771 
19:20	80.7	80.7	82.8	61	66.0	0	1	112	0.00	29.771 
19:25	80.7	80.7	82.8	61	66.0	0	1	112	0.00	29.771 
19:30	80.5	80.5	82.7	62	66.3	0	1	112	0.00	29.770 
19:35	80.3	80.3	82.4	62	66.1	0	1	112	0.00	29.770 
19:40	80.1	80.1	82.3	63	66.3	0	0	---	0.00	29.770 
19:45	79.9	79.9	81.9	62	65.7	0	0	---	0.00	29.776 
19:50	79.8	79.8	81.9	63	66.1	0	1	112	0.00	29.776 
19:55	79.6	79.6	81.6	63	65.9	0	0	---	0.00	29.776 
20:00	79.6	79.6	81.7	64	66.3	0	0	---	0.00	29.774 
20:05	79.4	79.4	81.6	65	66.6	0	1	112	0.00	29.774 
20:10	79.2	79.2	81.3	65	66.4	0	1	112	0.00	29.774 
20:15	78.8	78.8	80.8	65	66.0	0	0	---	0.00	29.772 
20:20	78.6	78.6	80.6	66	66.3	0	0	---	0.00	29.772 
20:25	78.3	78.3	80.3	67	66.4	0	1	112	0.00	29.772 
20:30	78.1	78.1	80.0	67	66.2	0	0	---	0.00	29.775 
20:35	77.9	77.9	79.8	68	66.5	0	0	---	0.00	29.775 
20:40	77.6	77.6	79.5	68	66.2	0	0	---	0.00	29.775 
20:45	77.2	77.2	79.0	69	66.2	0	0	---	0.00	29.777 
20:50	76.8	76.8	78.5	70	66.3	0	0	---	0.00	29.777 
20:55	76.7	76.7	78.4	71	66.6	0	0	---	0.00	29.777 
21:00	76.3	76.3	77.9	71	66.2	0	0	---	0.00	29.776 
21:05	76.1	76.1	77.7	71	66.0	0	0	---	0.00	29.776 
21:10	76.0	76.0	77.5	72	66.3	0	0	---	0.00	29.776 
21:15	75.8	75.8	77.3	72	66.1	0	0	---	0.00	29.770 
21:20	75.6	75.6	77.1	72	65.9	0	0	---	0.00	29.770 
21:25	75.4	75.4	76.8	73	66.1	0	0	---	0.00	29.770 
21:30	75.3	75.3	76.7	73	66.0	0	2	112	0.00	29.774 
21:35	75.1	75.1	76.4	74	66.2	0	0	---	0.00	29.774 
21:40	75.1	75.1	76.3	75	66.6	0	2	112	0.00	29.774 
21:45	74.9	74.9	74.9	74	66.0	0	2	112	0.00	29.782 
21:50	74.9	74.9	74.9	74	66.0	0	1	112	0.00	29.782 
21:55	74.9	74.9	74.9	73	65.6	0	2	112	0.00	29.782 
22:00	74.9	74.9	74.9	73	65.6	0	1	112	0.00	29.791 
22:05	74.9	74.9	74.9	73	65.6	0	3	112	0.00	29.791 
22:10	74.7	74.7	74.7	73	65.5	0	3	112	0.00	29.791 
22:15	74.7	74.7	74.7	72	65.1	1	3	112	0.00	29.788 
22:20	74.6	74.6	74.6	73	65.4	0	2	112	0.00	29.788 
22:25	74.2	74.2	74.2	73	65.0	1	4	112	0.00	29.788 
22:30	74.0	74.0	74.0	75	65.6	0	2	112	0.00	29.791 
22:35	73.5	73.5	73.5	75	65.1	0	2	112	0.00	29.791 
22:40	73.2	73.2	73.2	76	65.2	0	3	112	0.00	29.791 
22:45	72.8	72.8	72.8	76	64.8	0	4	45	0.00	29.794 
22:50	72.3	72.3	72.3	75	63.9	1	3	45	0.00	29.794 
22:55	72.1	72.1	72.1	75	63.7	1	4	45	0.00	29.794 
23:00	71.8	71.8	71.8	74	63.1	2	4	45	0.00	29.791 
23:05	71.6	71.6	71.6	74	62.9	1	4	68	0.00	29.791 
23:10	71.3	71.3	71.3	74	62.6	0	4	68	0.00	29.791 
23:15	71.1	71.1	71.1	75	62.8	1	4	68	0.00	29.790 
23:20	70.8	70.8	70.8	75	62.5	1	3	68	0.00	29.790 
23:25	70.6	70.6	70.6	76	62.7	0	2	68	0.00	29.790 
23:30	70.3	70.3	70.3	76	62.4	0	1	68	0.00	29.798 
23:35	70.1	70.1	70.1	76	62.2	0	2	68	0.00	29.798 
23:40	70.1	70.1	70.1	76	62.2	0	1	68	0.00	29.798 
23:45	69.9	69.9	69.9	77	62.3	0	0	---	0.00	29.797 
23:50	69.8	69.8	69.8	77	62.3	0	1	68	0.00	29.797 
23:55	69.6	69.6	69.6	77	62.1	0	1	68	0.00	29.797 

CoCoRaHS
IN-AL-39
A2 Web Hosting
Creative Commons License
GoDaddy
search engine by freefind advanced

loaded 2018-11-16 01:19:48 • last modified 2010-11-18 10:43:29
Privacy PolicyDisclaimer
• wx.awcolley.com is powered by PmWiki v.2002016 •
• all content (unless otherwise noted) © 2018 A W Colley